Latest Weather Observations for North Head

IDN60801

Issued at 6:23 pm EST Saturday 9 May 2026 (issued every 10 minutes, with the page automatically refreshed every 10 minutes)

About weather observations | Map of weather stations | Latest weather observations for NSW | Other Formats
Station Details ID: 066197 Name: NORTH HEAD Lat: -33.82 Lon: 151.30 Height: 90.0 m
Data from the previous 72 hours. | See also: Recent months at North Head
Date/Time
EST
Temp
°C
App
Temp
°C
Dew
Point
°C
Rel
Hum
%
Delta-T
°C
Wind Press
QNH
hPa
Press
MSL
hPa
Rain since
9am
mm
Dir  Spd
km/h
Gust
km/h
Spd
kts
Gust
kts
09/06:00pm - - - - - SE 11 19 6 10 - - -
09/05:30pm - - - - - SSE 13 17 7 9 - - -
09/05:00pm - - - - - SSE 13 19 7 10 - - -
09/04:30pm - - - - - SSE 15 20 8 11 - - -
09/04:00pm - - - - - SSE 13 22 7 12 - - -
09/03:30pm - - - - - SSE 15 20 8 11 - - -
09/03:00pm - - - - - SSE 15 20 8 11 - - -
09/02:30pm - - - - - SSE 15 20 8 11 - - -
09/02:00pm - - - - - SSE 17 22 9 12 - - -
09/01:30pm - - - - - SSE 17 24 9 13 - - -
09/01:00pm - - - - - SSE 19 26 10 14 - - -
09/12:30pm - - - - - SSE 17 24 9 13 - - -
09/12:00pm - - - - - SSE 17 24 9 13 - - -
09/11:30am - - - - - SSW 7 15 4 8 - - -
09/11:00am - - - - - WSW 9 15 5 8 - - -
09/10:30am - - - - - WSW 11 19 6 10 - - -
09/10:00am - - - - - W 13 19 7 10 - - -
09/09:30am - - - - - W 15 20 8 11 - - -
09/09:00am - - - - - W 15 20 8 11 - - -
09/08:30am - - - - - W 15 22 8 12 - - -
09/08:00am - - - - - W 15 20 8 11 - - -
09/07:30am - - - - - W 17 24 9 13 - - -
09/07:00am - - - - - W 15 20 8 11 - - -
09/06:30am - - - - - W 15 22 8 12 - - -
09/06:00am - - - - - W 13 19 7 10 - - -
09/05:30am - - - - - W 13 19 7 10 - - -
09/05:00am - - - - - WNW 13 19 7 10 - - -
09/04:30am - - - - - W 15 20 8 11 - - -
09/04:00am - - - - - W 15 24 8 13 - - -
09/03:30am - - - - - W 17 28 9 15 - - -
09/03:00am - - - - - W 15 22 8 12 - - -
09/02:30am - - - - - W 17 24 9 13 - - -
09/02:00am - - - - - WSW 17 26 9 14 - - -
09/01:30am - - - - - WSW 17 26 9 14 - - -
09/01:00am - - - - - WSW 17 24 9 13 - - -
09/12:30am - - - - - W 15 24 8 13 - - -
09/12:00am - - - - - WSW 17 28 9 15 - - -
 
Date/Time
EST
Temp
°C
App
Temp
°C
Dew
Point
°C
Rel
Hum
%
Delta-T
°C
Wind Press
QNH
hPa
Press
MSL
hPa
Rain since
9am
mm
Dir  Spd
km/h
Gust
km/h
Spd
kts
Gust
kts
08/11:30pm - - - - - W 17 26 9 14 - - -
08/11:00pm - - - - - W 17 28 9 15 - - -
08/10:30pm - - - - - W 17 30 9 16 - - -
08/10:00pm - - - - - WSW 19 26 10 14 - - -
08/09:30pm - - - - - WSW 20 32 11 17 - - -
08/09:00pm - - - - - WSW 19 32 10 17 - - -
08/08:30pm - - - - - WSW 20 32 11 17 - - -
08/08:00pm - - - - - WSW 22 35 12 19 - - -
08/07:30pm - - - - - WSW 22 37 12 20 - - -
08/07:00pm - - - - - WSW 20 35 11 19 - - -
08/06:30pm - - - - - W 24 39 13 21 - - -
08/06:00pm - - - - - WSW 24 39 13 21 - - -
08/05:30pm - - - - - W 17 26 9 14 - - -
08/05:00pm - - - - - WSW 19 30 10 16 - - -
08/04:30pm - - - - - W 20 33 11 18 - - -
08/04:00pm - - - - - WSW 19 30 10 16 - - -
08/03:30pm - - - - - W 20 35 11 19 - - -
08/03:00pm - - - - - W 22 35 12 19 - - -
08/02:30pm - - - - - W 22 33 12 18 - - -
08/02:00pm - - - - - W 22 37 12 20 - - -
08/01:30pm - - - - - W 24 33 13 18 - - -
08/01:00pm - - - - - WSW 26 39 14 21 - - -
08/12:30pm - - - - - W 22 37 12 20 - - -
08/12:00pm - - - - - WSW 26 35 14 19 - - -
08/11:31am - - - - - W 28 48 15 26 - - -
08/11:30am - - - - - W 26 48 14 26 - - -
08/11:00am - - - - - W 26 37 14 20 - - -
08/10:30am - - - - - W 24 43 13 23 - - -
08/10:00am - - - - - W 26 39 14 21 - - -
08/09:30am - - - - - W 28 43 15 23 - - -
08/09:00am - - - - - W 24 39 13 21 - - -
08/08:30am - - - - - W 24 35 13 19 - - -
08/08:00am - - - - - W 22 35 12 19 - - -
08/07:30am - - - - - WNW 22 35 12 19 - - -
08/07:00am - - - - - W 22 35 12 19 - - -
08/06:30am - - - - - W 22 32 12 17 - - -
08/06:00am - - - - - W 20 28 11 15 - - -
08/05:30am - - - - - W 22 33 12 18 - - -
08/05:00am - - - - - W 22 37 12 20 - - -
08/04:30am - - - - - W 22 37 12 20 - - -
08/04:00am - - - - - W 22 32 12 17 - - -
08/03:30am - - - - - W 20 37 11 20 - - -
08/03:00am - - - - - W 22 32 12 17 - - -
08/02:30am - - - - - W 22 33 12 18 - - -
08/02:00am - - - - - W 20 32 11 17 - - -
08/01:30am - - - - - W 24 37 13 20 - - -
08/01:00am - - - - - W 28 43 15 23 - - -
08/12:30am - - - - - W 20 30 11 16 - - -
08/12:00am - - - - - W 19 28 10 15 - - -
 
Date/Time
EST
Temp
°C
App
Temp
°C
Dew
Point
°C
Rel
Hum
%
Delta-T
°C
Wind Press
QNH
hPa
Press
MSL
hPa
Rain since
9am
mm
Dir  Spd
km/h
Gust
km/h
Spd
kts
Gust
kts
07/11:30pm - - - - - W 20 33 11 18 - - -
07/11:00pm - - - - - W 19 32 10 17 - - -
07/10:30pm - - - - - W 24 37 13 20 - - -
07/10:00pm - - - - - W 26 39 14 21 - - -
07/09:30pm - - - - - W 28 52 15 28 - - -
07/09:24pm - - - - - W 30 52 16 28 - - -
07/09:00pm - - - - - W 28 44 15 24 - - -
07/08:34pm - - - - - W 28 46 15 25 - - -
07/08:30pm - - - - - W 30 43 16 23 - - -
07/08:16pm - - - - - W 30 50 16 27 - - -
07/08:00pm - - - - - W 32 50 17 27 - - -
07/07:32pm - - - - - W 28 46 15 25 - - -
07/07:30pm - - - - - W 26 46 14 25 - - -
07/07:00pm - - - - - W 30 52 16 28 - - -
07/06:41pm - - - - - W 28 50 15 27 - - -
07/06:30pm - - - - - W 26 43 14 23 - - -
07/06:12pm - - - - - W 28 48 15 26 - - -
07/06:00pm - - - - - W 30 44 16 24 - - -
07/05:49pm - - - - - W 32 52 17 28 - - -
07/05:30pm - - - - - W 33 52 18 28 - - -
07/05:12pm - - - - - W 32 54 17 29 - - -
07/05:00pm - - - - - W 32 46 17 25 - - -
07/04:30pm - - - - - W 35 54 19 29 - - -
07/04:01pm - - - - - W 32 50 17 27 - - -
07/04:00pm - - - - - W 33 52 18 28 - - -
07/03:45pm - - - - - W 32 50 17 27 - - -
07/03:30pm - - - - - W 30 43 16 23 - - -
07/03:00pm - - - - - WSW 30 43 16 23 - - -
07/02:30pm - - - - - WSW 33 52 18 28 - - -
07/02:03pm - - - - - W 32 52 17 28 - - -
07/02:00pm - - - - - W 32 48 17 26 - - -
07/01:30pm - - - - - WSW 28 52 15 28 - - -
07/01:01pm - - - - - W 35 54 19 29 - - -
07/01:00pm - - - - - W 35 52 19 28 - - -
07/12:30pm - - - - - WSW 35 56 19 30 - - -
07/12:20pm - - - - - WSW 32 52 17 28 - - -
07/12:00pm - - - - - W 26 41 14 22 - - -
07/11:30am - - - - - WSW 28 46 15 25 - - -
07/11:17am - - - - - WSW 32 52 17 28 - - -
07/11:00am - - - - - WSW 35 46 19 25 - - -
07/10:59am - - - - - WSW 33 46 18 25 - - -
07/10:30am - - - - - W 11 19 6 10 - - -
07/10:00am - - - - - W 11 22 6 12 - - -
07/09:30am - - - - - WNW 11 17 6 9 - - -
07/09:00am - - - - - NW 11 17 6 9 - - -
07/08:30am - - - - - NW 9 13 5 7 - - -
07/08:00am - - - - - NW 7 13 4 7 - - -
07/07:30am - - - - - NW 7 9 4 5 - - -
07/07:00am - - - - - NW 6 9 3 5 - - -
07/06:30am - - - - - NW 7 9 4 5 - - -
07/06:00am - - - - - W 15 22 8 12 - - -
07/05:30am - - - - - W 15 22 8 12 - - -
07/05:00am - - - - - W 13 20 7 11 - - -
07/04:30am - - - - - W 11 13 6 7 - - -
07/04:00am - - - - - W 13 20 7 11 - - -
07/03:30am - - - - - W 13 19 7 10 - - -
07/03:00am - - - - - W 13 19 7 10 - - -
07/02:30am - - - - - WSW 11 19 6 10 - - -
07/02:00am - - - - - W 15 22 8 12 - - -
07/01:30am - - - - - W 11 15 6 8 - - -
07/01:00am - - - - - WNW 11 17 6 9 - - -
07/12:30am - - - - - WNW 11 17 6 9 - - -
07/12:00am - - - - - WNW 11 17 6 9 - - -
 
Date/Time
EST
Temp
°C
App
Temp
°C
Dew
Point
°C
Rel
Hum
%
Delta-T
°C
Wind Press
QNH
hPa
Press
MSL
hPa
Rain since
9am
mm
Dir  Spd
km/h
Gust
km/h
Spd
kts
Gust
kts
06/11:30pm - - - - - WNW 11 17 6 9 - - -
06/11:00pm - - - - - WNW 11 15 6 8 - - -
06/10:30pm - - - - - NNW 9 15 5 8 - - -
06/10:00pm - - - - - NNW 9 13 5 7 - - -
06/09:30pm - - - - - NNW 7 9 4 5 - - -
06/09:00pm - - - - - NNW 7 9 4 5 - - -
06/08:30pm - - - - - N 9 11 5 6 - - -
06/08:00pm - - - - - N 9 15 5 8 - - -
06/07:30pm - - - - - NNE 11 17 6 9 - - -
06/07:00pm - - - - - NE 13 15 7 8 - - -
06/06:30pm - - - - - NE 9 13 5 7 - - -

Other formats

Comma delimited format used in spreadsheet applications
http://www.bom.gov.au/fwo/IDN60801/IDN60801.95768.axf

JavaScript Object Notation format (JSON) in row-major order
http://www.bom.gov.au/fwo/IDN60801/IDN60801.95768.json

Data quality

Most of these data are generated automatically and are frequently updated. Quality checks on data are not normally performed. It is possible for incorrect values to appear. Refer to information at About Latest Weather Observations and please check the disclaimer before using these data.